Time;durP1;ratioP1;P1;durP2;ratioP2;P2;SDS_P1;SDS_P2;PMS_P1;PMS_P2;Temp;Humidity;BMP_temperature;BMP_pressure;BME280_temperature;BME280_humidity;BME280_pressure;Samples;Min_cycle;Max_cycle;Signal;HPM_P1;HPM_P2
2022/08/12 00:44:49;;;;;;;0.40;0.30;;;;;;;21.22;100.00;95371.22;5072230;28;20997;-58
2022/08/12 00:47:20;;;;;;;0.40;0.20;;;;;;;21.25;100.00;95362.44;5072108;28;20977;-58
2022/08/12 00:49:54;;;;;;;0.43;0.30;;;;;;;20.88;100.00;95371.53;5072431;28;20421;-58
2022/08/12 00:52:25;;;;;;;0.67;0.50;;;;;;;20.84;100.00;95367.94;5071868;28;20932;-58
2022/08/12 00:54:57;;;;;;;0.50;0.40;;;;;;;21.22;100.00;95355.03;5072412;28;20472;-58
2022/08/12 00:57:27;;;;;;;0.80;0.40;;;;;;;21.40;100.00;95359.06;5071091;28;20512;-58
2022/08/12 00:59:58;;;;;;;0.40;0.20;;;;;;;21.40;100.00;95356.38;5071808;28;20424;-58
2022/08/12 01:02:28;;;;;;;0.40;0.30;;;;;;;21.57;100.00;95357.28;5072084;28;20453;-58
2022/08/12 01:13:22;;;;;;;0.63;0.40;;;;;;;21.32;100.00;95340.31;5071611;28;20520;-58
2022/08/12 01:15:52;;;;;;;0.50;0.30;;;;;;;21.48;100.00;95363.56;5071707;28;21034;-58
2022/08/12 01:18:23;;;;;;;0.40;0.20;;;;;;;21.43;100.00;95365.69;5071442;28;21166;-58
2022/08/12 01:21:03;;;;;;;0.53;0.40;;;;;;;21.34;100.00;95360.44;5071142;28;20486;-58
2022/08/12 01:24:12;;;;;;;0.50;0.30;;;;;;;21.43;100.00;95368.41;5071649;28;20511;-58
2022/08/12 01:27:00;;;;;;;0.40;0.30;;;;;;;21.38;100.00;95365.94;5071273;28;20559;-58
2022/08/12 01:29:31;;;;;;;0.40;0.20;;;;;;;21.46;100.00;95368.53;5071452;28;20513;-58
2022/08/12 01:32:07;;;;;;;0.40;0.30;;;;;;;21.33;100.00;95356.16;5071809;28;20483;-58
2022/08/12 01:34:38;;;;;;;0.40;0.20;;;;;;;21.49;100.00;95359.78;5071767;28;20425;-58
2022/08/12 01:37:09;;;;;;;0.50;0.30;;;;;;;21.18;100.00;95305.59;5071424;28;20499;-58
2022/08/12 01:39:41;;;;;;;0.40;0.30;;;;;;;21.45;100.00;95350.75;5071553;28;20508;-58
2022/08/12 01:42:34;;;;;;;0.40;0.20;;;;;;;21.09;100.00;95355.34;5071364;28;20425;-58
2022/08/12 01:45:03;;;;;;;0.40;0.30;;;;;;;21.12;100.00;95360.06;5071296;28;20425;-58
2022/08/12 01:47:41;;;;;;;0.40;0.30;;;;;;;21.27;100.00;95359.41;5071179;28;20496;-57
2022/08/12 01:50:21;;;;;;;0.50;0.30;;;;;;;21.32;100.00;95361.91;5071866;28;20425;-58
2022/08/12 01:52:58;;;;;;;0.40;0.20;;;;;;;21.36;100.00;95354.69;5071542;28;20475;-58
2022/08/12 01:55:29;;;;;;;0.40;0.20;;;;;;;21.30;100.00;95347.97;5071293;28;20849;-58
2022/08/12 01:58:14;;;;;;;0.40;0.20;;;;;;;21.35;100.00;95350.44;5071234;28;20445;-58
2022/08/12 02:00:47;;;;;;;1.17;0.43;;;;;;;21.29;100.00;95347.19;5071222;28;20432;-58
2022/08/12 02:12:21;;;;;;;0.50;0.40;;;;;;;21.29;100.00;95335.59;5074801;28;20457;-58
2022/08/12 02:15:11;;;;;;;1.17;0.30;;;;;;;21.26;100.00;95337.06;5074722;28;20418;-58
2022/08/12 02:17:55;;;;;;;0.50;0.40;;;;;;;21.03;100.00;95311.63;5074929;28;20476;-58
2022/08/12 02:20:32;;;;;;;0.40;0.30;;;;;;;21.15;100.00;95344.00;5074521;28;20425;-58
2022/08/12 02:23:26;;;;;;;0.40;0.30;;;;;;;21.05;100.00;95339.00;5074352;28;20429;-58
2022/08/12 02:25:58;;;;;;;0.40;0.30;;;;;;;20.98;100.00;95341.47;5074736;28;20431;-58
2022/08/12 02:28:27;;;;;;;0.40;0.30;;;;;;;20.89;100.00;95316.53;5074423;28;20965;-58
2022/08/12 02:31:03;;;;;;;0.40;0.20;;;;;;;21.22;100.00;95332.69;5074421;28;20417;-58
2022/08/12 02:33:33;;;;;;;0.87;0.87;;;;;;;21.29;100.00;95331.00;5074357;28;20508;-58
2022/08/12 02:36:02;;;;;;;0.80;0.40;;;;;;;20.40;100.00;95341.72;5074390;28;20512;-59
2022/08/12 02:38:31;;;;;;;0.50;0.40;;;;;;;19.96;100.00;95352.00;5074500;28;20513;-58
2022/08/12 02:41:05;;;;;;;0.50;0.40;;;;;;;19.63;100.00;95346.53;5074537;28;20503;-58
2022/08/12 02:43:39;;;;;;;0.50;0.50;;;;;;;19.29;100.00;95346.69;5074185;28;20453;-58
2022/08/12 02:46:12;;;;;;;0.50;0.40;;;;;;;19.55;100.00;95349.28;5074445;28;20534;-58
2022/08/12 02:48:50;;;;;;;0.50;0.33;;;;;;;20.14;100.00;95353.47;5073918;28;20464;-58
2022/08/12 02:51:22;;;;;;;0.43;0.33;;;;;;;20.02;100.00;95355.31;5073698;28;20428;-58
2022/08/12 02:53:52;;;;;;;0.40;0.20;;;;;;;20.14;100.00;95350.78;5073985;28;20461;-58
2022/08/12 02:56:36;;;;;;;0.40;0.30;;;;;;;20.21;100.00;95313.34;5073942;28;20436;-58
2022/08/12 02:59:10;;;;;;;0.50;0.40;;;;;;;19.69;100.00;95236.09;5074136;28;20417;-58
2022/08/12 03:01:46;;;;;;;0.50;0.50;;;;;;;20.50;100.00;95349.41;5073647;28;20416;-58
2022/08/12 03:04:23;;;;;;;0.40;0.20;;;;;;;20.25;100.00;95351.22;5073453;28;20968;-58
2022/08/12 03:07:00;;;;;;;0.40;0.30;;;;;;;20.22;100.00;95352.63;5073345;28;20511;-56
2022/08/12 03:09:33;;;;;;;3.90;0.40;;;;;;;20.26;100.00;95347.41;5072827;28;20413;-56
2022/08/12 03:12:24;;;;;;;0.50;0.30;;;;;;;20.70;100.00;95351.28;5073231;28;20812;-56
2022/08/12 03:15:04;;;;;;;0.40;0.30;;;;;;;20.07;100.00;95221.38;5073358;28;20424;-56
2022/08/12 03:17:42;;;;;;;0.60;0.50;;;;;;;21.02;100.00;95353.19;5072002;28;20485;-56
2022/08/12 03:20:15;;;;;;;0.40;0.30;;;;;;;21.03;100.00;95346.66;5073105;28;20536;-56
2022/08/12 03:22:44;;;;;;;0.50;0.47;;;;;;;21.12;100.00;95351.97;5073367;28;20508;-56
2022/08/12 03:25:16;;;;;;;0.40;0.20;;;;;;;21.22;100.00;95356.94;5073284;28;20425;-55
2022/08/12 03:27:50;;;;;;;0.60;0.60;;;;;;;21.12;100.00;95351.97;5072509;28;20477;-56
2022/08/12 03:30:20;;;;;;;0.40;0.30;;;;;;;21.24;100.00;95350.09;5072925;28;20425;-56
2022/08/12 03:32:52;;;;;;;0.40;0.20;;;;;;;21.23;100.00;95350.41;5072921;28;20516;-56
2022/08/12 03:35:25;;;;;;;0.40;0.20;;;;;;;21.31;100.00;95354.91;5073231;28;20500;-56
2022/08/12 03:38:10;;;;;;;0.40;0.30;;;;;;;21.24;100.00;95358.19;5071911;28;20444;-56
2022/08/12 04:00:29;;;;;;;0.60;0.30;;;;;;;21.40;100.00;95336.75;5072534;28;20476;-55
2022/08/12 04:03:00;;;;;;;0.60;0.40;;;;;;;21.64;100.00;95350.22;5072637;28;20802;-55
2022/08/12 04:05:32;;;;;;;0.87;0.43;;;;;;;21.76;100.00;95341.31;5072245;28;20516;-54
2022/08/12 04:08:24;;;;;;;0.60;0.47;;;;;;;21.96;100.00;95352.00;5072004;28;20854;-55
2022/08/12 04:13:40;;;;;;;0.80;0.50;;;;;;;21.21;100.00;95361.53;5072148;28;20435;-55
2022/08/12 04:16:12;;;;;;;0.80;0.80;;;;;;;20.64;100.00;95328.38;5072139;28;20421;-55
2022/08/12 04:18:41;;;;;;;0.63;0.63;;;;;;;20.80;100.00;95367.03;5071984;28;20542;-55
2022/08/12 04:21:11;;;;;;;0.50;0.30;;;;;;;20.82;100.00;95364.81;5071983;28;20468;-55
2022/08/12 04:23:41;;;;;;;0.40;0.30;;;;;;;20.54;100.00;95375.34;5071946;28;20468;-55
2022/08/12 04:26:16;;;;;;;2.00;0.50;;;;;;;20.21;100.00;95264.91;5072038;28;20420;-55
2022/08/12 04:28:44;;;;;;;0.50;0.40;;;;;;;20.98;100.00;95375.72;5071466;28;20465;-55
2022/08/12 04:31:13;;;;;;;1.33;0.60;;;;;;;21.48;100.00;95371.66;5072224;28;20464;-56
2022/08/12 04:33:43;;;;;;;0.40;0.30;;;;;;;21.45;100.00;95366.19;5071925;28;20460;-57
2022/08/12 04:36:13;;;;;;;0.60;0.33;;;;;;;20.87;100.00;95375.38;5071808;28;20514;-56
2022/08/12 04:38:42;;;;;;;0.50;0.33;;;;;;;20.53;100.00;95327.22;5071620;28;20508;-55
2022/08/12 04:41:11;;;;;;;0.50;0.50;;;;;;;20.85;100.00;95380.28;5071712;28;20933;-55
2022/08/12 04:43:40;;;;;;;0.73;0.70;;;;;;;20.94;100.00;95372.13;5071937;28;20496;-55
2022/08/12 04:46:28;;;;;;;0.60;0.40;;;;;;;21.04;100.00;95372.50;5071711;28;20436;-57
2022/08/12 04:49:02;;;;;;;0.50;0.33;;;;;;;21.08;100.00;95378.00;5071382;28;20469;-56
2022/08/12 04:51:33;;;;;;;0.50;0.30;;;;;;;21.59;100.00;95380.09;5071644;28;20483;-57
2022/08/12 04:54:03;;;;;;;0.40;0.30;;;;;;;21.89;100.00;95369.88;5071675;28;20464;-56
2022/08/12 04:56:32;;;;;;;0.40;0.30;;;;;;;22.19;100.00;95371.19;5071346;28;20948;-56
2022/08/12 04:59:04;;;;;;;1.03;0.70;;;;;;;22.13;100.00;95375.25;5071392;28;20425;-57
2022/08/12 05:01:32;;;;;;;0.67;0.67;;;;;;;21.01;100.00;95346.19;5071724;28;20449;-56
2022/08/12 05:04:01;;;;;;;0.97;0.77;;;;;;;20.34;100.00;95289.22;5071594;28;20840;-56
2022/08/12 05:06:30;;;;;;;0.80;0.70;;;;;;;20.59;100.00;95385.13;5071234;28;20917;-54
2022/08/12 05:09:00;;;;;;;1.20;1.10;;;;;;;21.04;100.00;95388.66;5071578;28;20488;-58
2022/08/12 05:11:40;;;;;;;0.83;0.83;;;;;;;20.40;100.00;95400.97;5071310;28;20425;-54
2022/08/12 05:14:21;;;;;;;0.60;0.50;;;;;;;20.23;100.00;95397.31;5071307;28;20941;-59
2022/08/12 05:16:49;;;;;;;0.50;0.30;;;;;;;20.12;100.00;95393.38;5071368;28;20572;-59
2022/08/12 05:19:20;;;;;;;0.70;0.60;;;;;;;20.19;100.00;95395.53;5071076;28;21067;-59
2022/08/12 05:21:49;;;;;;;0.50;0.40;;;;;;;20.15;100.00;95400.81;5071185;28;20986;-59
2022/08/12 05:24:19;;;;;;;4.73;2.67;;;;;;;20.11;100.00;95402.56;5071180;28;20472;-55
2022/08/12 05:26:48;;;;;;;0.90;0.90;;;;;;;20.14;100.00;95403.81;5071153;28;20891;-56
2022/08/12 05:29:16;;;;;;;0.80;0.50;;;;;;;20.49;100.00;95391.69;5071065;28;20556;-55
2022/08/12 05:32:07;;;;;;;6.57;0.73;;;;;;;20.70;100.00;95403.25;5071442;28;20425;-55
2022/08/12 05:34:35;;;;;;;0.97;0.60;;;;;;;21.02;100.00;95365.84;5070291;28;20433;-57
2022/08/12 05:37:04;;;;;;;0.50;0.40;;;;;;;20.96;100.00;95404.91;5071289;28;20478;-57
2022/08/12 05:39:34;;;;;;;1.43;1.33;;;;;;;20.77;100.00;95400.03;5071316;28;20840;-56
2022/08/12 05:42:03;;;;;;;1.37;0.80;;;;;;;20.61;100.00;95409.81;5075311;28;20499;-55
2022/08/12 05:44:31;;;;;;;0.50;0.40;;;;;;;21.44;100.00;95395.06;5075058;28;20461;-55
2022/08/12 05:46:59;;;;;;;0.77;0.60;;;;;;;21.39;100.00;95387.19;5073990;28;20997;-57
2022/08/12 05:49:28;;;;;;;0.50;0.50;;;;;;;20.98;100.00;95333.38;5074830;28;20552;-54
2022/08/12 05:51:57;;;;;;;0.70;0.60;;;;;;;21.25;100.00;95386.69;5074841;28;20464;-56
2022/08/12 05:54:26;;;;;;;0.60;0.30;;;;;;;21.22;100.00;95386.59;5074700;28;20464;-56
2022/08/12 05:57:16;;;;;;;0.57;0.57;;;;;;;21.05;100.00;95392.91;5074594;28;20441;-56
2022/08/12 05:59:44;;;;;;;1.00;0.80;;;;;;;19.76;100.00;95220.25;5074743;28;20456;-57
2022/08/12 06:02:13;;;;;;;0.40;0.30;;;;;;;21.07;100.00;95392.63;5074650;28;20417;-56
2022/08/12 06:04:42;;;;;;;1.07;0.60;;;;;;;21.32;100.00;95376.16;5074875;28;20428;-57
2022/08/12 06:07:11;;;;;;;0.83;0.70;;;;;;;21.31;100.00;95381.88;5074733;28;20444;-56
2022/08/12 06:09:59;;;;;;;0.50;0.30;;;;;;;21.43;100.00;95369.19;5074380;28;20485;-56
2022/08/12 06:12:29;;;;;;;0.50;0.33;;;;;;;21.86;100.00;95374.06;5074695;28;20844;-56
2022/08/12 06:14:58;;;;;;;0.93;0.93;;;;;;;22.44;100.00;95369.97;5074392;28;20512;-55
2022/08/12 06:17:29;;;;;;;0.60;0.50;;;;;;;22.93;100.00;95380.63;5074360;28;20428;-54
2022/08/12 06:19:58;;;;;;;0.57;0.57;;;;;;;22.93;100.00;95378.72;5074269;28;20509;-55
2022/08/12 06:22:47;;;;;;;0.93;0.53;;;;;;;22.58;100.00;95370.41;5074130;28;20441;-57
2022/08/12 06:25:17;;;;;;;0.40;0.30;;;;;;;22.96;100.00;95375.31;5074304;28;20487;-57
2022/08/12 06:27:50;;;;;;;0.50;0.50;;;;;;;23.16;100.00;95374.31;5074387;28;20451;-56
2022/08/12 06:30:36;;;;;;;0.90;0.90;;;;;;;23.75;100.00;95368.84;5074069;28;21265;-56
2022/08/12 06:33:07;;;;;;;1.10;0.50;;;;;;;24.66;100.00;95373.94;5073993;28;20508;-55
2022/08/12 06:35:50;;;;;;;1.40;0.60;;;;;;;24.81;100.00;95370.41;5073946;28;20913;-55
2022/08/12 06:38:20;;;;;;;1.53;1.43;;;;;;;24.92;100.00;95345.03;5073953;28;20513;-56
2022/08/12 06:43:39;;;;;;;1.30;1.20;;;;;;;24.90;100.00;95366.31;5073349;28;20441;-55
2022/08/12 06:46:30;;;;;;;1.07;0.57;;;;;;;25.42;99.39;95362.22;5074276;28;20439;-55
2022/08/12 06:48:59;;;;;;;0.60;0.57;;;;;;;25.57;95.13;95351.25;5074284;28;20887;-55
2022/08/12 06:51:29;;;;;;;1.43;0.80;;;;;;;26.09;91.16;95349.69;5073706;28;20442;-56
2022/08/12 06:53:58;;;;;;;0.90;0.43;;;;;;;26.42;89.24;95339.69;5073680;28;20941;-56
2022/08/12 06:56:28;;;;;;;0.60;0.60;;;;;;;26.81;87.85;95342.13;5073935;28;20471;-56
2022/08/12 06:59:19;;;;;;;1.50;1.07;;;;;;;26.67;86.00;95340.00;5073916;28;20449;-56
2022/08/12 07:01:48;;;;;;;0.60;0.50;;;;;;;27.13;85.42;95335.06;5074074;28;20500;-56
2022/08/12 07:04:20;;;;;;;0.83;0.83;;;;;;;27.10;80.02;95333.09;5073584;28;20425;-56
2022/08/12 07:07:06;;;;;;;0.80;0.50;;;;;;;27.83;76.37;95329.47;5073830;28;20427;-56
2022/08/12 07:09:36;;;;;;;0.70;0.40;;;;;;;27.83;68.46;95274.97;5073482;28;20461;-56
2022/08/12 07:12:26;;;;;;;0.60;0.50;;;;;;;27.92;70.96;95310.88;5073524;28;20434;-56
2022/08/12 07:14:58;;;;;;;0.60;0.60;;;;;;;28.83;63.66;95337.06;5073564;28;20803;-56
2022/08/12 07:17:34;;;;;;;1.03;0.93;;;;;;;28.39;63.98;95325.56;5073315;28;20453;-56
2022/08/12 07:20:08;;;;;;;1.00;1.00;;;;;;;28.43;63.04;95329.06;5073435;28;20424;-56
2022/08/12 07:22:37;;;;;;;0.57;0.57;;;;;;;29.09;62.25;95322.31;5073370;28;20417;-55
2022/08/12 07:27:53;;;;;;;1.57;1.47;;;;;;;28.86;63.46;95319.91;5073270;28;20472;-55
2022/08/12 07:30:24;;;;;;;1.13;0.87;;;;;;;28.83;65.96;95326.13;5072665;28;20972;-56
2022/08/12 07:32:53;;;;;;;0.50;0.50;;;;;;;28.52;63.39;95329.50;5073209;28;20867;-55
2022/08/12 07:35:29;;;;;;;0.60;0.50;;;;;;;28.50;66.15;95283.53;5072965;28;20421;-56
2022/08/12 07:37:59;;;;;;;1.80;0.60;;;;;;;28.73;65.10;95311.31;5073046;28;20456;-56
2022/08/12 07:40:29;;;;;;;0.73;0.73;;;;;;;28.80;64.49;95321.44;5073241;28;20468;-56
2022/08/12 07:42:58;;;;;;;0.93;0.50;;;;;;;28.37;65.14;95317.75;5072449;28;20428;-57
2022/08/12 07:45:28;;;;;;;0.53;0.43;;;;;;;27.71;68.28;95316.94;5072905;28;20991;-56
2022/08/12 07:47:56;;;;;;;7.90;0.80;;;;;;;27.80;66.41;95315.84;5072862;28;20464;-56
2022/08/12 07:50:25;;;;;;;0.63;0.50;;;;;;;28.63;64.40;95298.41;5072655;28;21048;-57
2022/08/12 07:52:53;;;;;;;0.40;0.30;;;;;;;29.09;58.16;95308.66;5072715;28;20470;-54
2022/08/12 07:55:22;;;;;;;1.23;1.13;;;;;;;28.29;62.93;95308.75;5073045;28;20547;-56
2022/08/12 07:57:54;;;;;;;0.70;0.63;;;;;;;28.17;68.60;95311.81;5072644;28;20472;-57
2022/08/12 08:00:23;;;;;;;1.03;0.70;;;;;;;27.73;65.94;95309.16;5072339;28;20418;-56
2022/08/12 08:02:53;;;;;;;0.97;0.87;;;;;;;27.51;68.46;95317.56;5072093;28;20456;-57
2022/08/12 08:05:23;;;;;;;0.70;0.70;;;;;;;28.08;67.27;95313.31;5072549;28;20421;-56
2022/08/12 08:07:54;;;;;;;0.70;0.57;;;;;;;27.35;73.08;95309.63;5072856;28;20509;-56
2022/08/12 08:10:25;;;;;;;1.67;0.47;;;;;;;28.21;72.77;95309.09;5072359;28;20551;-56
2022/08/12 08:12:52;;;;;;;0.60;0.50;;;;;;;28.06;69.04;95308.25;5072382;28;20461;-56
2022/08/12 08:15:21;;;;;;;0.50;0.40;;;;;;;27.63;71.78;95241.81;5072245;28;20432;-55
2022/08/12 08:18:14;;;;;;;0.40;0.37;;;;;;;28.14;66.93;95295.44;5072006;28;21038;-55
2022/08/12 08:20:53;;;;;;;1.37;0.50;;;;;;;27.90;69.12;95255.19;5072472;28;20428;-56
2022/08/12 08:23:21;;;;;;;0.40;0.30;;;;;;;27.89;68.97;95306.16;5072527;28;20503;-56
2022/08/12 08:26:02;;;;;;;3.07;0.50;;;;;;;28.25;64.36;95297.06;5072384;28;20425;-56
2022/08/12 08:28:35;;;;;;;0.60;0.60;;;;;;;27.75;65.02;95275.34;5071728;28;20509;-56
2022/08/12 08:31:03;;;;;;;0.70;0.70;;;;;;;28.50;57.41;95288.97;5071933;28;20501;-56
2022/08/12 08:33:33;;;;;;;0.40;0.40;;;;;;;28.36;61.92;95285.44;5072107;28;20497;-57
2022/08/12 08:36:21;;;;;;;0.50;0.43;;;;;;;29.27;57.18;95279.47;5071967;28;20441;-56
2022/08/12 08:38:51;;;;;;;0.40;0.40;;;;;;;29.61;52.43;95260.72;5071888;28;20422;-55
2022/08/12 08:44:31;;;;;;;1.00;0.50;;;;;;;32.47;44.04;95276.16;5072106;28;20429;-56
2022/08/12 08:47:01;;;;;;;0.50;0.50;;;;;;;32.79;39.57;95271.06;5071899;28;20461;-56
2022/08/12 08:49:31;;;;;;;0.50;0.50;;;;;;;32.34;38.55;95266.91;5071950;28;20532;-56
2022/08/12 08:52:05;;;;;;;1.17;0.80;;;;;;;32.49;37.85;95257.31;5071885;28;20473;-56
2022/08/12 08:54:36;;;;;;;0.40;0.40;;;;;;;33.41;38.13;95258.81;5072170;28;20449;-56
2022/08/12 08:57:06;;;;;;;0.93;0.93;;;;;;;34.33;35.10;95263.50;5071586;28;20518;-55
2022/08/12 08:59:35;;;;;;;0.70;0.70;;;;;;;34.71;32.38;95258.41;5071779;28;20435;-56
2022/08/12 09:02:04;;;;;;;0.93;0.70;;;;;;;34.19;32.65;95194.97;5072001;28;20452;-57
2022/08/12 09:04:37;;;;;;;0.57;0.50;;;;;;;34.88;31.54;95251.75;5071940;28;20423;-55
2022/08/12 09:07:27;;;;;;;0.43;0.43;;;;;;;35.30;32.34;95250.00;5071739;28;20543;-55
2022/08/12 09:10:18;;;;;;;0.73;0.73;;;;;;;35.60;33.95;95246.91;5072076;28;20468;-56
2022/08/12 09:15:55;;;;;;;0.40;0.30;;;;;;;36.09;31.82;95242.13;5074404;28;20425;-56
2022/08/12 09:18:27;;;;;;;0.40;0.30;;;;;;;35.85;30.14;95158.78;5075998;28;20241;-56
2022/08/12 09:21:17;;;;;;;0.30;0.30;;;;;;;35.97;31.05;95242.81;5076070;28;20198;-55
2022/08/12 09:23:49;;;;;;;0.70;0.70;;;;;;;36.23;32.86;95233.47;5076151;28;20273;-55
2022/08/12 09:26:34;;;;;;;0.60;0.60;;;;;;;35.71;30.66;95219.84;5076209;28;20228;-55
2022/08/12 09:29:14;;;;;;;0.40;0.30;;;;;;;36.84;29.83;95225.75;5075657;28;20224;-55
2022/08/12 09:31:42;;;;;;;0.60;0.40;;;;;;;37.03;29.02;95218.50;5075689;28;20210;-55
2022/08/12 09:34:32;;;;;;;1.00;1.00;;;;;;;35.32;30.80;95220.81;5075612;28;20202;-56
2022/08/12 09:37:11;;;;;;;0.40;0.30;;;;;;;35.71;31.95;95214.34;5075359;28;20265;-57
2022/08/12 09:39:49;;;;;;;0.60;0.57;;;;;;;34.62;33.04;95231.44;5075311;28;20187;-56
2022/08/12 09:45:48;;;;;;;0.50;0.50;;;;;;;35.18;34.51;95209.34;5075352;28;20220;-55
2022/08/12 09:48:37;;;;;;;0.40;0.30;;;;;;;36.07;34.01;95203.16;5075155;28;20304;-56
2022/08/12 09:51:07;;;;;;;0.50;0.40;;;;;;;35.02;31.88;95199.06;5075004;28;20293;-55
2022/08/12 09:53:51;;;;;;;0.40;0.30;;;;;;;36.58;31.19;95193.03;5075052;28;20605;-55
2022/08/12 09:56:41;;;;;;;1.43;1.07;;;;;;;34.64;32.86;95203.47;5075256;28;20206;-54
2022/08/12 09:59:30;;;;;;;0.70;0.70;;;;;;;35.02;33.75;95197.09;5074944;28;20753;-55
2022/08/12 10:02:18;;;;;;;0.50;0.40;;;;;;;35.98;33.11;95180.91;5075175;28;20198;-55
2022/08/12 10:05:08;;;;;;;0.50;0.50;;;;;;;35.61;31.30;95191.34;5074753;28;20204;-55
2022/08/12 10:07:44;;;;;;;0.50;0.50;;;;;;;35.18;31.26;95190.84;5074977;28;20218;-54
2022/08/12 10:10:14;;;;;;;0.40;0.40;;;;;;;34.76;33.14;95189.06;5075059;28;20246;-54
2022/08/12 10:16:03;;;;;;;0.50;0.50;;;;;;;34.02;35.97;95188.59;5073874;28;20202;-55
2022/08/12 10:18:35;;;;;;;0.70;0.60;;;;;;;32.62;37.22;95185.03;5074396;28;20234;-55
2022/08/12 10:21:19;;;;;;;4.10;0.80;;;;;;;32.02;40.83;95193.25;5073997;28;20225;-56
2022/08/12 10:23:52;;;;;;;0.50;0.50;;;;;;;32.00;41.31;95190.16;5074143;28;20189;-57
2022/08/12 10:32:20;;;;;;;0.50;0.50;;;;;;;32.54;43.57;95186.31;5074259;28;20475;-55
2022/08/12 10:35:09;;;;;;;0.70;0.63;;;;;;;31.63;44.25;95190.09;5074119;28;20453;-55
2022/08/12 10:37:38;;;;;;;0.70;0.70;;;;;;;31.62;46.05;95183.09;5074283;28;20428;-56
2022/08/12 10:40:26;;;;;;;0.47;0.40;;;;;;;32.93;41.82;95171.25;5074205;28;20448;-55
2022/08/12 10:45:47;;;;;;;0.60;0.60;;;;;;;33.43;41.69;95166.50;5073693;28;20489;-56
2022/08/12 10:48:19;;;;;;;1.13;1.00;;;;;;;33.61;40.09;95161.50;5073692;28;20432;-55
2022/08/12 10:51:03;;;;;;;0.60;0.50;;;;;;;33.44;39.04;95159.81;5073974;28;20460;-56
2022/08/12 10:53:53;;;;;;;0.60;0.60;;;;;;;33.27;41.80;95168.38;5073604;28;20952;-55
2022/08/12 10:56:29;;;;;;;1.00;0.80;;;;;;;33.04;41.70;95163.66;5073314;28;20497;-54
2022/08/12 10:59:05;;;;;;;0.70;0.70;;;;;;;34.34;38.72;95169.50;5073628;28;20947;-57
2022/08/12 11:01:39;;;;;;;0.43;0.40;;;;;;;34.86;35.67;95155.78;5073577;28;20516;-56
2022/08/12 11:04:30;;;;;;;0.60;0.60;;;;;;;35.33;33.90;95167.25;5073449;28;20448;-55
2022/08/12 11:07:16;;;;;;;0.70;0.70;;;;;;;35.62;33.75;95159.03;5073466;28;20182;-55
2022/08/12 11:10:06;;;;;;;0.40;0.40;;;;;;;34.18;36.74;95160.44;5073380;28;20209;-55
2022/08/12 11:12:36;;;;;;;0.40;0.40;;;;;;;34.81;36.38;95152.75;5072999;28;20206;-55
2022/08/12 11:15:26;;;;;;;0.57;0.53;;;;;;;34.53;34.83;95154.16;5072714;28;20565;-55
2022/08/12 11:18:15;;;;;;;0.70;0.50;;;;;;;34.88;34.05;95141.56;5072900;28;20317;-56
2022/08/12 11:20:47;;;;;;;0.77;0.77;;;;;;;34.86;34.89;95139.25;5073410;28;20232;-55
2022/08/12 11:23:19;;;;;;;0.70;0.70;;;;;;;33.27;35.22;95147.16;5073027;28;20873;-55
2022/08/12 11:26:21;;;;;;;0.40;0.40;;;;;;;32.85;37.34;95143.13;5072355;28;20196;-55
2022/08/12 11:28:53;;;;;;;0.67;0.67;;;;;;;32.70;36.90;95141.81;5072575;28;20437;-55
2022/08/12 11:31:34;;;;;;;0.53;0.53;;;;;;;31.51;41.45;95147.59;5071707;28;20853;-55
2022/08/12 11:34:23;;;;;;;0.60;0.57;;;;;;;31.06;41.58;95141.34;5072446;28;20461;-55
2022/08/12 11:37:11;;;;;;;0.70;0.60;;;;;;;30.49;44.04;95145.63;5072202;28;20447;-56
2022/08/12 11:40:00;;;;;;;0.60;0.50;;;;;;;30.16;45.05;95144.22;5072593;28;20443;-57
2022/08/12 11:42:28;;;;;;;0.60;0.50;;;;;;;30.00;45.44;95136.53;5072507;28;20519;-58
2022/08/12 11:44:59;;;;;;;0.40;0.40;;;;;;;30.00;47.48;95141.19;5072869;28;20479;-57
2022/08/12 11:47:29;;;;;;;0.40;0.30;;;;;;;30.45;47.07;95145.66;5072180;28;20451;-56
2022/08/12 11:49:57;;;;;;;1.20;1.00;;;;;;;29.31;49.69;95155.44;5072103;28;20939;-55
2022/08/12 11:52:26;;;;;;;0.60;0.60;;;;;;;29.08;53.91;95146.06;5072470;28;20991;-54
2022/08/12 11:55:14;;;;;;;0.97;0.80;;;;;;;28.37;61.05;95134.31;5072705;28;20434;-55
2022/08/12 11:57:51;;;;;;;0.63;0.60;;;;;;;28.82;73.33;95144.50;5072351;28;20487;-54
2022/08/12 12:00:39;;;;;;;0.83;0.83;;;;;;;29.10;76.78;95149.97;5072226;28;20445;-54
2022/08/12 12:03:29;;;;;;;0.53;0.53;;;;;;;29.15;75.98;95148.78;5072073;28;20448;-55
2022/08/12 12:06:13;;;;;;;0.63;0.60;;;;;;;28.87;72.28;95150.34;5072128;28;20937;-56
2022/08/12 12:08:44;;;;;;;0.77;0.77;;;;;;;28.60;74.71;95148.38;5072144;28;20460;-56
2022/08/12 12:11:20;;;;;;;1.00;0.90;;;;;;;28.64;75.49;95149.19;5072143;28;20439;-56
2022/08/12 12:13:49;;;;;;;1.10;0.60;;;;;;;28.91;73.86;95162.06;5071831;28;20883;-55
2022/08/12 12:16:37;;;;;;;0.47;0.40;;;;;;;28.59;79.33;95172.13;5071916;28;20444;-56
2022/08/12 12:19:17;;;;;;;0.73;0.73;;;;;;;28.36;80.60;95165.47;5072052;28;20495;-56
2022/08/12 12:21:46;;;;;;;0.50;0.40;;;;;;;28.57;80.34;95168.22;5072139;28;20502;-56
2022/08/12 12:24:17;;;;;;;2.43;1.43;;;;;;;28.07;80.26;95165.38;5072169;28;20529;-56
2022/08/12 12:26:50;;;;;;;2.63;0.60;;;;;;;28.15;79.13;95158.03;5072283;28;20421;-56
2022/08/12 12:29:28;;;;;;;3.70;1.27;;;;;;;27.68;65.15;95172.56;5072156;28;20793;-57
2022/08/12 12:32:17;;;;;;;1.67;0.40;;;;;;;28.09;58.02;95160.34;5071686;28;20485;-57
2022/08/12 12:34:47;;;;;;;0.40;0.37;;;;;;;28.25;61.75;95163.50;5072102;28;20476;-57
2022/08/12 12:37:49;;;;;;;0.40;0.40;;;;;;;27.86;62.70;95159.81;5071758;28;20437;-57
2022/08/12 12:40:34;;;;;;;0.60;0.40;;;;;;;28.15;58.50;95147.13;5072030;28;20425;-57
2022/08/12 12:43:07;;;;;;;0.60;0.50;;;;;;;27.76;64.10;95146.94;5071954;28;20436;-57
2022/08/12 12:45:38;;;;;;;0.40;0.30;;;;;;;27.18;63.53;95083.59;5071957;28;20428;-57
2022/08/12 12:48:14;;;;;;;1.17;0.70;;;;;;;27.47;65.66;95151.47;5071674;28;20432;-58
2022/08/12 12:50:46;;;;;;;0.80;0.47;;;;;;;27.85;61.63;95143.88;5071396;28;20421;-56
2022/08/12 12:53:20;;;;;;;0.40;0.30;;;;;;;27.45;64.38;95080.28;5071475;28;20522;-57
2022/08/12 12:56:14;;;;;;;0.40;0.37;;;;;;;27.86;61.89;95142.69;5070556;28;20434;-56
2022/08/12 12:58:43;;;;;;;0.93;0.93;;;;;;;27.80;63.75;95146.97;5071469;28;20421;-56
2022/08/12 13:01:12;;;;;;;0.50;0.50;;;;;;;27.88;59.67;95152.03;5071514;28;20425;-56
2022/08/12 13:03:57;;;;;;;0.73;0.67;;;;;;;27.73;63.00;95144.97;5071890;28;20500;-56
2022/08/12 13:06:31;;;;;;;2.83;0.43;;;;;;;27.60;67.49;95136.34;5071496;28;20982;-57
2022/08/12 13:09:02;;;;;;;4.03;0.30;;;;;;;27.84;74.59;95161.38;5071325;28;20523;-56
2022/08/12 13:11:31;;;;;;;0.43;0.33;;;;;;;27.79;76.73;95150.84;5071458;28;20819;-56
2022/08/12 13:14:12;;;;;;;0.43;0.43;;;;;;;28.01;74.86;95157.94;5071368;28;20475;-55
2022/08/12 13:16:59;;;;;;;0.50;0.40;;;;;;;27.35;72.07;95072.81;5071196;28;20431;-56
2022/08/12 13:19:35;;;;;;;0.60;0.60;;;;;;;27.93;73.13;95164.53;5070632;28;20484;-56
2022/08/12 13:22:17;;;;;;;0.47;0.40;;;;;;;27.28;79.87;95162.59;5070649;28;20857;-56
2022/08/12 13:24:50;;;;;;;0.73;0.60;;;;;;;27.19;82.43;95170.31;5071092;28;20944;-56
2022/08/12 13:27:23;;;;;;;0.40;0.40;;;;;;;26.79;79.83;95119.50;5070769;28;20425;-56
2022/08/12 13:30:02;;;;;;;0.40;0.30;;;;;;;27.36;80.51;95166.94;5070994;28;20417;-56
2022/08/12 13:32:34;;;;;;;0.60;0.40;;;;;;;27.12;81.42;95159.41;5070977;28;21008;-56
2022/08/12 13:35:02;;;;;;;0.93;0.93;;;;;;;26.98;77.08;95170.16;5070975;28;20913;-56
2022/08/12 13:37:54;;;;;;;0.63;0.63;;;;;;;26.65;70.93;95172.94;5070958;28;20437;-56
2022/08/12 13:40:24;;;;;;;1.07;0.70;;;;;;;26.56;83.74;95177.91;5070863;28;20802;-57
2022/08/12 13:42:56;;;;;;;0.50;0.50;;;;;;;26.80;86.16;95174.66;5070882;28;20460;-56
2022/08/12 13:45:25;;;;;;;0.70;0.40;;;;;;;26.52;98.65;95163.50;5071061;28;20429;-56
2022/08/12 13:47:58;;;;;;;1.00;0.97;;;;;;;26.47;100.00;95189.88;5070973;28;20428;-56
2022/08/12 13:50:31;;;;;;;1.47;0.40;;;;;;;26.54;100.00;95188.41;5071117;28;20429;-56
2022/08/12 13:53:04;;;;;;;0.47;0.40;;;;;;;26.54;100.00;95180.25;5071229;28;20465;-56
2022/08/12 13:55:51;;;;;;;0.50;0.50;;;;;;;26.17;91.19;95115.03;5071001;28;20513;-56
2022/08/12 13:58:29;;;;;;;0.53;0.53;;;;;;;26.57;100.00;95184.91;5070712;28;20505;-51